createdAt,value
2018-06-09T00:00:14.405Z,74.0
2018-06-09T00:01:15.077Z,73.7
2018-06-09T00:02:15.749Z,74.0
2018-06-09T00:03:16.427Z,74.3
2018-06-09T00:04:17.095Z,74.5
2018-06-09T00:05:17.768Z,74.0
2018-06-09T00:06:18.446Z,73.9
2018-06-09T00:07:19.114Z,73.7
2018-06-09T00:08:19.788Z,73.6
2018-06-09T00:09:20.460Z,73.9
2018-06-09T00:10:21.133Z,73.7
2018-06-09T00:11:21.806Z,73.8
2018-06-09T00:12:22.480Z,73.8
2018-06-09T00:13:23.204Z,74.1
2018-06-09T00:14:23.878Z,74.8
2018-06-09T00:15:24.551Z,74.3
2018-06-09T00:16:25.224Z,74.9
2018-06-09T00:17:25.896Z,74.6
2018-06-09T00:18:26.568Z,75.0
2018-06-09T00:19:27.243Z,75.4
2018-06-09T00:20:27.916Z,75.1
2018-06-09T00:21:28.629Z,75.1
2018-06-09T00:22:29.300Z,75.5
2018-06-09T00:23:29.973Z,75.6
2018-06-09T00:24:30.647Z,75.8
2018-06-09T00:25:31.324Z,76.6
2018-06-09T00:26:31.993Z,76.7
2018-06-09T00:27:32.666Z,76.4
2018-06-09T00:28:33.334Z,76.5
2018-06-09T00:29:34.006Z,77.2
2018-06-09T00:30:34.681Z,76.6
2018-06-09T00:31:35.355Z,77.0
2018-06-09T00:32:36.027Z,77.3
2018-06-09T00:33:36.749Z,77.6
2018-06-09T00:34:37.422Z,77.5
2018-06-09T00:35:38.094Z,77.5
2018-06-09T00:36:38.765Z,77.2
2018-06-09T00:37:39.440Z,77.7
2018-06-09T00:38:40.153Z,77.4
2018-06-09T00:39:40.827Z,77.8
2018-06-09T00:40:41.499Z,77.8
2018-06-09T00:41:42.172Z,77.2
2018-06-09T00:42:42.845Z,77.0
2018-06-09T00:43:43.517Z,77.6
2018-06-09T00:44:44.189Z,77.4
2018-06-09T00:45:44.860Z,77.3
2018-06-09T00:46:45.532Z,77.4
2018-06-09T00:47:46.204Z,77.1
2018-06-09T00:48:46.920Z,76.7
2018-06-09T00:49:47.593Z,76.6
2018-06-09T00:50:48.266Z,76.3
2018-06-09T00:51:48.943Z,76.0
2018-06-09T00:52:49.612Z,76.1
2018-06-09T00:53:50.287Z,75.5
2018-06-09T00:54:50.956Z,75.5
2018-06-09T00:55:51.629Z,76.0
2018-06-09T00:56:52.301Z,75.8
2018-06-09T00:57:52.975Z,75.8
2018-06-09T00:58:53.650Z,76.0
2018-06-09T00:59:54.361Z,76.3
2018-06-09T01:00:55.035Z,76.1
2018-06-09T01:01:55.706Z,76.1
2018-06-09T01:02:56.380Z,76.1
2018-06-09T01:03:57.052Z,76.4
2018-06-09T01:04:57.726Z,76.6
2018-06-09T01:05:58.437Z,76.4
2018-06-09T01:06:59.108Z,76.6
2018-06-09T01:07:59.780Z,76.3
2018-06-09T01:09:00.454Z,77.0
2018-06-09T01:10:01.128Z,77.1
2018-06-09T01:11:01.801Z,77.4
2018-06-09T01:12:02.515Z,77.3
2018-06-09T01:13:03.185Z,77.3
2018-06-09T01:14:03.857Z,77.4
2018-06-09T01:15:04.530Z,77.3
2018-06-09T01:16:05.202Z,77.2
2018-06-09T01:17:05.874Z,77.0
2018-06-09T01:18:06.547Z,77.0
2018-06-09T01:19:07.221Z,77.2
2018-06-09T01:20:07.893Z,77.1
2018-06-09T01:21:08.565Z,77.1
2018-06-09T01:22:09.239Z,77.6
2018-06-09T01:23:09.949Z,77.9
2018-06-09T01:24:10.622Z,77.8
2018-06-09T01:25:11.294Z,77.8
2018-06-09T01:26:11.965Z,77.8
2018-06-09T01:27:12.637Z,78.2
2018-06-09T01:28:13.308Z,78.2
2018-06-09T01:29:14.033Z,78.2
2018-06-09T01:30:14.705Z,78.1
2018-06-09T01:31:15.377Z,78.2
2018-06-09T01:32:16.049Z,78.7
2018-06-09T01:33:16.722Z,78.4
2018-06-09T01:34:17.393Z,78.4
2018-06-09T01:35:18.065Z,78.6
2018-06-09T01:36:18.811Z,78.9
2018-06-09T01:37:19.444Z,78.9
2018-06-09T01:38:20.115Z,79.3
2018-06-09T01:39:20.825Z,79.3
2018-06-09T01:40:21.539Z,80.1
2018-06-09T01:41:22.212Z,79.8
2018-06-09T01:42:22.886Z,79.8
2018-06-09T01:43:23.557Z,79.7
2018-06-09T01:44:24.229Z,79.7
2018-06-09T01:45:24.903Z,79.8
2018-06-09T01:46:25.575Z,79.8
2018-06-09T01:47:26.244Z,80.1
2018-06-09T01:48:26.916Z,80.0
2018-06-09T01:49:27.587Z,80.1
2018-06-09T01:50:28.262Z,80.3
2018-06-09T01:51:28.935Z,79.9
2018-06-09T01:52:29.606Z,80.1
2018-06-09T01:53:30.278Z,80.1
2018-06-09T01:54:30.951Z,80.1
2018-06-09T01:55:31.625Z,80.2
2018-06-09T01:56:32.297Z,80.2
2018-06-09T01:57:32.967Z,80.3
2018-06-09T01:58:33.638Z,80.2
2018-06-09T01:59:34.311Z,80.3
2018-06-09T02:00:34.985Z,80.2
2018-06-09T02:01:35.657Z,80.2
2018-06-09T02:02:36.330Z,80.5
2018-06-09T02:03:36.999Z,80.4
2018-06-09T02:04:37.673Z,80.6
2018-06-09T02:05:38.344Z,80.4
2018-06-09T02:06:39.055Z,80.3
2018-06-09T02:07:39.727Z,80.3
2018-06-09T02:08:40.398Z,80.3
2018-06-09T02:09:41.070Z,80.5
2018-06-09T02:10:41.742Z,80.3
2018-06-09T02:11:42.415Z,80.4
2018-06-09T02:12:43.086Z,80.4
2018-06-09T02:13:43.756Z,80.1
2018-06-09T02:14:44.479Z,80.7
2018-06-09T02:15:45.151Z,80.7
2018-06-09T02:16:45.822Z,80.4
2018-06-09T02:17:46.494Z,80.7
2018-06-09T02:18:47.167Z,80.8
2018-06-09T02:19:47.840Z,80.5
2018-06-09T02:20:48.513Z,80.5
2018-06-09T02:21:49.184Z,80.5
2018-06-09T02:22:49.857Z,80.3
2018-06-09T02:23:50.530Z,80.4
2018-06-09T02:24:51.240Z,80.3
2018-06-09T02:25:51.911Z,80.7
2018-06-09T02:26:52.621Z,80.4
2018-06-09T02:27:53.293Z,80.4
2018-06-09T02:28:53.964Z,80.7
2018-06-09T02:29:54.636Z,80.5
2018-06-09T02:30:55.310Z,80.0
2018-06-09T02:31:55.981Z,79.9
2018-06-09T02:32:56.692Z,79.8
2018-06-09T02:33:57.364Z,79.8
2018-06-09T02:34:58.042Z,79.9
2018-06-09T02:35:58.747Z,80.1
2018-06-09T02:36:59.420Z,80.0
2018-06-09T02:38:00.089Z,79.3
2018-06-09T02:39:00.759Z,79.5
2018-06-09T02:40:01.432Z,79.6
2018-06-09T02:41:02.109Z,79.7
2018-06-09T02:42:02.783Z,79.8
2018-06-09T02:43:03.456Z,79.6
2018-06-09T02:44:04.129Z,79.5
2018-06-09T02:45:04.806Z,79.9
2018-06-09T02:46:05.476Z,79.9
2018-06-09T02:47:06.151Z,79.7
2018-06-09T02:48:06.823Z,79.8
2018-06-09T02:49:07.497Z,79.4
2018-06-09T02:50:08.168Z,79.6
2018-06-09T02:51:08.841Z,80.1
2018-06-09T02:52:09.513Z,80.0
2018-06-09T02:53:10.185Z,80.0
2018-06-09T02:54:10.858Z,80.2
2018-06-09T02:55:11.530Z,80.5
2018-06-09T02:56:12.205Z,80.8
2018-06-09T02:57:12.879Z,80.5
2018-06-09T02:58:13.551Z,80.8
2018-06-09T02:59:14.227Z,81.0
2018-06-09T03:00:14.899Z,81.0
2018-06-09T03:01:15.574Z,80.8
2018-06-09T03:02:16.246Z,80.5
2018-06-09T03:03:16.945Z,80.3
2018-06-09T03:04:17.639Z,80.5
2018-06-09T03:05:18.350Z,80.8
2018-06-09T03:06:19.025Z,80.7
2018-06-09T03:07:19.738Z,80.7
2018-06-09T03:08:20.414Z,80.6
2018-06-09T03:09:21.084Z,80.3
2018-06-09T03:10:21.762Z,80.7
2018-06-09T03:11:22.433Z,80.9
2018-06-09T03:12:23.106Z,81.3
2018-06-09T03:13:23.818Z,81.0
2018-06-09T03:14:24.490Z,81.0
2018-06-09T03:15:25.166Z,81.0
2018-06-09T03:16:25.840Z,81.7
2018-06-09T03:17:26.516Z,81.6
2018-06-09T03:18:27.232Z,81.2
2018-06-09T03:19:27.912Z,81.3
2018-06-09T03:20:28.580Z,81.7
2018-06-09T03:21:29.256Z,81.8
2018-06-09T03:22:29.928Z,81.9
2018-06-09T03:23:30.603Z,81.7
2018-06-09T03:24:31.279Z,82.1
2018-06-09T03:25:31.953Z,82.1
2018-06-09T03:26:32.627Z,82.4
2018-06-09T03:27:33.302Z,82.3
2018-06-09T03:28:33.981Z,82.5
2018-06-09T03:29:34.655Z,82.3
2018-06-09T03:30:35.329Z,82.1
2018-06-09T03:31:36.004Z,82.2
2018-06-09T03:32:36.735Z,82.3
2018-06-09T03:33:37.353Z,82.3
2018-06-09T03:34:38.028Z,82.3
2018-06-09T03:35:38.706Z,82.5
2018-06-09T03:36:39.381Z,82.6
2018-06-09T03:37:40.056Z,82.2
2018-06-09T03:38:40.731Z,82.4
2018-06-09T03:39:41.405Z,82.4
2018-06-09T03:40:42.081Z,82.3
2018-06-09T03:41:42.756Z,82.8
2018-06-09T03:42:43.431Z,82.0
2018-06-09T03:43:44.107Z,82.5
2018-06-09T03:44:44.782Z,82.2
2018-06-09T03:45:45.460Z,82.1
2018-06-09T03:46:46.135Z,82.0
2018-06-09T03:47:46.811Z,82.8
2018-06-09T03:48:47.509Z,82.5
2018-06-09T03:49:48.162Z,82.7
2018-06-09T03:50:48.847Z,82.3
2018-06-09T03:51:49.517Z,82.3
2018-06-09T03:52:50.194Z,82.6
2018-06-09T03:53:50.909Z,82.5
2018-06-09T03:54:51.586Z,81.9
2018-06-09T03:55:52.306Z,81.8
2018-06-09T03:56:52.978Z,82.0
2018-06-09T03:57:53.655Z,81.6
2018-06-09T03:58:54.332Z,81.5
2018-06-09T03:59:55.004Z,81.4
2018-06-09T04:00:55.732Z,81.6
2018-06-09T04:01:56.407Z,81.0
2018-06-09T04:02:57.123Z,81.1
2018-06-09T04:03:57.798Z,81.1
2018-06-09T04:04:58.513Z,80.7
2018-06-09T04:05:59.191Z,81.0
2018-06-09T04:06:59.865Z,80.7
2018-06-09T04:08:00.544Z,80.4
2018-06-09T04:09:01.230Z,80.7
2018-06-09T04:10:01.932Z,80.5
2018-06-09T04:11:02.606Z,80.7
2018-06-09T04:12:03.284Z,80.7
2018-06-09T04:13:03.959Z,80.2
2018-06-09T04:14:04.636Z,80.2
2018-06-09T04:15:05.311Z,80.4
2018-06-09T04:16:05.990Z,80.2
2018-06-09T04:17:06.666Z,79.8
2018-06-09T04:18:07.342Z,79.7
2018-06-09T04:19:08.018Z,79.7
2018-06-09T04:20:08.693Z,79.7
2018-06-09T04:21:09.371Z,79.9
2018-06-09T04:22:10.047Z,79.8
2018-06-09T04:23:10.722Z,79.7
2018-06-09T04:24:11.399Z,79.7
2018-06-09T04:25:12.073Z,79.5
2018-06-09T04:26:12.751Z,79.4
2018-06-09T04:27:13.426Z,79.7
2018-06-09T04:28:14.105Z,79.7
2018-06-09T04:29:14.779Z,80.0
2018-06-09T04:30:15.454Z,79.4
2018-06-09T04:31:16.132Z,79.7
2018-06-09T04:32:16.848Z,79.3
2018-06-09T04:33:17.524Z,79.2
2018-06-09T04:34:18.199Z,78.8
2018-06-09T04:35:18.875Z,78.4
2018-06-09T04:36:19.551Z,78.5
2018-06-09T04:37:20.227Z,78.6
2018-06-09T04:38:20.902Z,78.5
2018-06-09T04:39:21.617Z,78.8
2018-06-09T04:40:22.296Z,78.4
2018-06-09T04:41:22.970Z,78.3
2018-06-09T04:42:23.648Z,77.7
2018-06-09T04:43:24.324Z,77.9
2018-06-09T04:44:24.999Z,77.9
2018-06-09T04:45:25.677Z,77.5
2018-06-09T04:46:26.352Z,77.7
2018-06-09T04:47:27.030Z,78.2
2018-06-09T04:48:27.706Z,78.0
2018-06-09T04:49:28.389Z,77.2
2018-06-09T04:50:29.101Z,77.3
2018-06-09T04:51:29.781Z,77.0
2018-06-09T04:52:30.458Z,77.2
2018-06-09T04:53:31.137Z,77.8
2018-06-09T04:54:31.852Z,77.7
2018-06-09T04:55:32.529Z,76.9
2018-06-09T04:56:33.208Z,77.2
2018-06-09T04:57:33.885Z,77.1
2018-06-09T04:58:34.563Z,77.9
2018-06-09T04:59:35.238Z,77.3
2018-06-09T05:00:35.918Z,77.5
2018-06-09T05:01:36.594Z,77.2
2018-06-09T05:02:37.273Z,76.8
2018-06-09T05:03:37.950Z,77.1
2018-06-09T05:04:38.627Z,76.6
2018-06-09T05:05:39.307Z,76.7
2018-06-09T05:06:40.025Z,76.2
2018-06-09T05:07:40.700Z,76.0
2018-06-09T05:08:41.376Z,75.9
2018-06-09T05:09:42.054Z,76.0
2018-06-09T05:10:42.733Z,75.9
2018-06-09T05:11:43.411Z,76.0
2018-06-09T05:12:44.089Z,75.8
2018-06-09T05:13:44.767Z,75.7
2018-06-09T05:14:45.448Z,75.3
2018-06-09T05:15:46.122Z,75.1
2018-06-09T05:16:46.800Z,74.8
2018-06-09T05:17:47.477Z,75.0
2018-06-09T05:18:48.156Z,75.1
2018-06-09T05:19:48.835Z,75.1
2018-06-09T05:20:49.511Z,74.8
2018-06-09T05:21:50.189Z,74.9
2018-06-09T05:22:50.865Z,74.2
2018-06-09T05:23:51.548Z,74.2
2018-06-09T05:24:52.225Z,74.3
2018-06-09T05:25:52.941Z,74.3
2018-06-09T05:26:53.616Z,74.3
2018-06-09T05:27:54.293Z,74.2
2018-06-09T05:28:54.977Z,74.5
2018-06-09T05:29:55.653Z,73.6
2018-06-09T05:30:56.331Z,73.7
2018-06-09T05:31:57.059Z,73.7
2018-06-09T05:32:57.736Z,73.5
2018-06-09T05:33:58.414Z,73.4
2018-06-09T05:34:59.091Z,73.0
2018-06-09T05:35:59.769Z,72.9
2018-06-09T05:37:00.449Z,72.4
2018-06-09T05:38:01.128Z,71.2
2018-06-09T05:39:01.804Z,71.0
2018-06-09T05:40:02.481Z,71.1
2018-06-09T05:41:03.160Z,71.3
2018-06-09T05:42:03.859Z,71.2
2018-06-09T05:43:04.556Z,70.5
2018-06-09T05:44:05.233Z,70.9
2018-06-09T05:45:05.912Z,70.6
2018-06-09T05:46:06.592Z,70.1
2018-06-09T05:47:07.296Z,70.1
2018-06-09T05:48:07.950Z,69.8
2018-06-09T05:49:08.626Z,68.4
2018-06-09T05:50:09.305Z,68.3
2018-06-09T05:51:10.024Z,68.2
2018-06-09T05:52:10.703Z,67.9
2018-06-09T05:53:11.381Z,67.6
2018-06-09T05:54:12.059Z,67.0
2018-06-09T05:55:12.739Z,67.7
2018-06-09T05:56:13.419Z,67.4
2018-06-09T05:57:14.096Z,67.1
2018-06-09T05:58:14.775Z,67.1
2018-06-09T05:59:15.458Z,65.6
2018-06-09T06:00:16.134Z,65.4
2018-06-09T06:01:16.813Z,65.0
2018-06-09T06:02:17.500Z,65.1
2018-06-09T06:03:18.172Z,64.9
2018-06-09T06:04:18.851Z,64.1
2018-06-09T06:05:19.530Z,63.1
2018-06-09T06:06:20.210Z,63.4
2018-06-09T06:07:20.892Z,62.9
2018-06-09T06:08:21.620Z,61.9
2018-06-09T06:09:22.254Z,60.8
2018-06-09T06:10:22.934Z,58.2
2018-06-09T06:11:23.615Z,56.1
2018-06-09T06:12:24.295Z,54.4
2018-06-09T06:13:24.980Z,51.4
2018-06-09T06:14:25.698Z,49.8
2018-06-09T06:15:26.381Z,48.6
2018-06-09T06:16:27.064Z,47.2
2018-06-09T06:17:27.744Z,47.6
2018-06-09T06:18:28.426Z,46.1
2018-06-09T06:19:29.109Z,45.1
2018-06-09T06:20:29.798Z,43.4
2018-06-09T06:21:30.475Z,41.9
2018-06-09T06:22:31.157Z,40.2
2018-06-09T06:23:31.841Z,38.7
2018-06-09T06:24:32.525Z,37.5
2018-06-09T06:25:33.209Z,35.9
2018-06-09T06:26:33.892Z,34.6
2018-06-09T06:27:34.578Z,33.0
2018-06-09T06:28:35.263Z,32.0
2018-06-09T06:29:35.948Z,31.3
2018-06-09T06:30:36.633Z,30.7
2018-06-09T06:31:37.319Z,30.2
2018-06-09T06:32:38.059Z,29.7
2018-06-09T06:33:38.744Z,29.3
2018-06-09T06:34:39.432Z,28.5
2018-06-09T06:35:40.120Z,27.2
2018-06-09T06:36:40.805Z,26.8
2018-06-09T06:37:41.495Z,25.8
2018-06-09T06:38:42.180Z,25.4
2018-06-09T06:39:42.880Z,25.1
2018-06-09T06:40:43.555Z,24.5
2018-06-09T06:41:44.285Z,24.6
2018-06-09T06:42:44.975Z,24.0
2018-06-09T06:43:45.702Z,22.6
2018-06-09T06:44:46.390Z,22.2
2018-06-09T06:45:47.076Z,22.0
2018-06-09T06:46:47.804Z,21.3
2018-06-09T06:47:48.491Z,21.2
2018-06-09T06:48:49.199Z,20.9
2018-06-09T06:49:49.907Z,20.8
2018-06-09T06:50:50.595Z,21.1
2018-06-09T06:51:51.283Z,20.6
2018-06-09T06:52:51.971Z,20.4
2018-06-09T06:53:52.658Z,20.1
2018-06-09T06:54:53.347Z,20.1
2018-06-09T06:55:54.064Z,19.7
2018-06-09T06:56:54.763Z,19.4
2018-06-09T06:57:55.491Z,19.6
2018-06-09T06:58:56.180Z,19.6
2018-06-09T06:59:56.870Z,19.8
2018-06-09T07:00:57.555Z,19.3
2018-06-09T07:01:58.272Z,20.0
2018-06-09T07:02:58.981Z,20.9
2018-06-09T07:03:59.670Z,21.4
2018-06-09T07:05:00.358Z,22.0
2018-06-09T07:06:01.050Z,23.2
2018-06-09T07:07:01.735Z,24.3
2018-06-09T07:08:02.427Z,25.6
2018-06-09T07:09:03.111Z,26.0
2018-06-09T07:10:03.801Z,26.3
2018-06-09T07:11:04.488Z,26.7
2018-06-09T07:12:05.175Z,27.1
2018-06-09T07:13:05.866Z,27.5
2018-06-09T07:14:06.554Z,27.3
2018-06-09T07:15:07.240Z,27.8
2018-06-09T07:16:07.928Z,28.2
2018-06-09T07:17:08.616Z,28.2
2018-06-09T07:18:09.305Z,29.1
2018-06-09T07:19:09.991Z,28.9
2018-06-09T07:20:10.680Z,29.3
2018-06-09T07:21:11.408Z,28.2
2018-06-09T07:22:12.104Z,28.2
2018-06-09T07:23:12.784Z,27.1
2018-06-09T07:24:13.472Z,26.2
2018-06-09T07:25:14.162Z,25.5
2018-06-09T07:26:14.863Z,24.7
2018-06-09T07:27:15.539Z,23.8
2018-06-09T07:28:16.227Z,23.2
2018-06-09T07:29:16.954Z,22.9
2018-06-09T07:30:17.644Z,22.7
2018-06-09T07:31:18.331Z,22.9
2018-06-09T07:32:19.021Z,22.6
2018-06-09T07:33:19.759Z,23.2
2018-06-09T07:34:20.484Z,22.9
2018-06-09T07:35:21.176Z,22.9
2018-06-09T07:36:21.906Z,23.1
2018-06-09T07:37:22.595Z,23.5
2018-06-09T07:38:23.280Z,24.1
2018-06-09T07:39:23.989Z,23.8
2018-06-09T07:40:24.697Z,24.0
2018-06-09T07:41:25.384Z,24.1
2018-06-09T07:42:26.072Z,23.9
2018-06-09T07:43:26.763Z,23.6
2018-06-09T07:44:27.452Z,23.9
2018-06-09T07:45:28.143Z,24.2
2018-06-09T07:46:28.830Z,24.2
2018-06-09T07:47:29.520Z,23.9
2018-06-09T07:48:30.260Z,23.8
2018-06-09T07:49:30.950Z,23.1
2018-06-09T07:50:31.636Z,22.7
2018-06-09T07:51:32.327Z,22.3
2018-06-09T07:52:33.012Z,22.1
2018-06-09T07:53:33.699Z,21.5
2018-06-09T07:54:34.386Z,22.1
2018-06-09T07:55:35.075Z,21.5
2018-06-09T07:56:35.761Z,21.3
2018-06-09T07:57:36.451Z,21.1
2018-06-09T07:58:37.140Z,20.8
2018-06-09T07:59:37.881Z,21.1
2018-06-09T08:00:38.514Z,20.7
2018-06-09T08:01:39.202Z,20.3
2018-06-09T08:02:39.932Z,20.2
2018-06-09T08:03:40.671Z,19.6
2018-06-09T08:04:41.377Z,19.7
2018-06-09T08:05:42.092Z,19.3
2018-06-09T08:06:42.781Z,19.0
2018-06-09T08:07:43.509Z,18.8
2018-06-09T08:08:44.197Z,18.5
2018-06-09T08:09:44.885Z,18.4
2018-06-09T08:10:45.573Z,17.9
2018-06-09T08:11:46.262Z,18.1
2018-06-09T08:12:46.959Z,18.1
2018-06-09T08:13:47.676Z,18.0
2018-06-09T08:14:48.404Z,18.0
2018-06-09T08:15:49.097Z,18.2
2018-06-09T08:16:49.821Z,18.6
2018-06-09T08:17:50.513Z,18.6
2018-06-09T08:18:51.248Z,18.2
2018-06-09T08:19:51.935Z,18.0
2018-06-09T08:20:52.625Z,17.8
2018-06-09T08:21:53.312Z,17.2
2018-06-09T08:22:54.042Z,17.3
2018-06-09T08:23:54.732Z,17.3
2018-06-09T08:24:55.417Z,17.0
2018-06-09T08:25:56.105Z,16.7
2018-06-09T08:26:56.794Z,16.6
2018-06-09T08:27:57.479Z,16.9
2018-06-09T08:28:58.216Z,16.8
2018-06-09T08:29:58.900Z,16.9
2018-06-09T08:30:59.588Z,17.0
2018-06-09T08:32:00.277Z,17.1
2018-06-09T08:33:00.963Z,16.8
2018-06-09T08:34:01.713Z,16.8
2018-06-09T08:35:02.431Z,17.4
2018-06-09T08:36:03.186Z,17.3
2018-06-09T08:37:03.836Z,17.7
2018-06-09T08:38:04.521Z,18.5
2018-06-09T08:39:05.207Z,18.4
2018-06-09T08:40:05.897Z,17.9
2018-06-09T08:41:06.583Z,17.9
2018-06-09T08:42:07.354Z,17.8
2018-06-09T08:43:07.955Z,18.3
2018-06-09T08:44:08.643Z,18.4
2018-06-09T08:45:09.338Z,18.8
2018-06-09T08:46:10.021Z,19.1
2018-06-09T08:47:10.753Z,18.6
2018-06-09T08:48:11.480Z,19.0
2018-06-09T08:49:12.163Z,18.8
2018-06-09T08:50:12.863Z,19.8
2018-06-09T08:51:13.571Z,19.6
2018-06-09T08:52:14.298Z,19.7
2018-06-09T08:53:15.018Z,19.7
2018-06-09T08:54:15.709Z,19.5
2018-06-09T08:55:16.391Z,19.4
2018-06-09T08:56:17.078Z,19.7
2018-06-09T08:57:17.765Z,19.9
2018-06-09T08:58:18.453Z,19.8
2018-06-09T08:59:19.141Z,20.0
2018-06-09T09:00:19.828Z,20.5
2018-06-09T09:01:20.516Z,20.5
2018-06-09T09:02:21.202Z,20.5
2018-06-09T09:03:21.889Z,20.8
2018-06-09T09:04:22.575Z,20.3
2018-06-09T09:05:23.262Z,20.2
2018-06-09T09:06:23.948Z,20.3
2018-06-09T09:07:24.636Z,19.8
2018-06-09T09:08:25.325Z,19.5
2018-06-09T09:09:26.073Z,18.7
2018-06-09T09:10:26.701Z,19.0
2018-06-09T09:11:27.387Z,19.6
2018-06-09T09:12:28.102Z,19.4
2018-06-09T09:13:28.803Z,20.0
2018-06-09T09:14:29.491Z,20.1
2018-06-09T09:15:30.181Z,20.2
2018-06-09T09:16:30.933Z,20.2
2018-06-09T09:17:31.556Z,20.4
2018-06-09T09:18:32.246Z,20.5
2018-06-09T09:19:32.973Z,20.9
2018-06-09T09:20:33.659Z,21.1
2018-06-09T09:21:34.346Z,21.5
2018-06-09T09:22:35.035Z,21.4
2018-06-09T09:23:35.766Z,21.5
2018-06-09T09:24:36.452Z,21.5
2018-06-09T09:25:37.138Z,21.5
2018-06-09T09:26:37.824Z,21.5
2018-06-09T09:27:38.510Z,21.6
2018-06-09T09:28:39.197Z,22.2
2018-06-09T09:29:39.884Z,22.3
2018-06-09T09:30:40.568Z,22.3
2018-06-09T09:31:41.256Z,22.3
2018-06-09T09:32:41.942Z,22.4
2018-06-09T09:33:42.630Z,23.2
2018-06-09T09:34:43.317Z,23.1
2018-06-09T09:35:44.006Z,23.1
2018-06-09T09:36:44.733Z,23.1
2018-06-09T09:37:45.418Z,23.4
2018-06-09T09:38:46.106Z,23.4
2018-06-09T09:39:46.792Z,23.9
2018-06-09T09:40:47.479Z,24.1
2018-06-09T09:41:48.167Z,24.8
2018-06-09T09:42:48.850Z,25.0
2018-06-09T09:43:49.538Z,25.1
2018-06-09T09:44:50.226Z,24.8
2018-06-09T09:45:50.915Z,24.8
2018-06-09T09:46:51.641Z,24.4
2018-06-09T09:47:52.327Z,24.8
2018-06-09T09:48:53.016Z,24.7
2018-06-09T09:49:53.702Z,24.7
2018-06-09T09:50:54.389Z,24.1
2018-06-09T09:51:55.074Z,24.2
2018-06-09T09:52:55.762Z,23.5
2018-06-09T09:53:56.449Z,23.6
2018-06-09T09:54:57.185Z,24.1
2018-06-09T09:55:57.822Z,24.2
2018-06-09T09:56:58.511Z,24.7
2018-06-09T09:57:59.197Z,25.6
2018-06-09T09:58:59.884Z,25.5
2018-06-09T10:00:00.612Z,25.2
2018-06-09T10:01:01.298Z,25.5
2018-06-09T10:02:01.985Z,25.5
2018-06-09T10:03:02.672Z,25.8
2018-06-09T10:04:03.359Z,25.5
2018-06-09T10:05:04.044Z,25.6
2018-06-09T10:06:04.732Z,25.6
2018-06-09T10:07:05.417Z,25.6
2018-06-09T10:08:06.104Z,25.5
2018-06-09T10:09:06.791Z,26.1
2018-06-09T10:10:07.481Z,26.4
2018-06-09T10:11:08.167Z,27.1
2018-06-09T10:12:08.854Z,27.2
2018-06-09T10:13:09.568Z,27.5
2018-06-09T10:14:10.277Z,27.0
2018-06-09T10:15:10.958Z,27.2
2018-06-09T10:16:11.689Z,27.2
2018-06-09T10:17:12.374Z,27.5
2018-06-09T10:18:13.064Z,27.9
2018-06-09T10:19:13.747Z,27.7
2018-06-09T10:20:14.437Z,27.7
2018-06-09T10:21:15.122Z,27.7
2018-06-09T10:22:15.846Z,28.2
2018-06-09T10:23:16.539Z,28.6
2018-06-09T10:24:17.265Z,28.6
2018-06-09T10:25:17.966Z,28.7
2018-06-09T10:26:18.686Z,28.7
2018-06-09T10:27:19.369Z,28.1
2018-06-09T10:28:20.054Z,28.4
2018-06-09T10:29:20.740Z,29.1
2018-06-09T10:30:21.427Z,29.2
2018-06-09T10:31:22.116Z,29.5
2018-06-09T10:32:22.801Z,29.8
2018-06-09T10:33:23.530Z,30.4
2018-06-09T10:34:24.216Z,31.3
2018-06-09T10:35:24.904Z,31.1
2018-06-09T10:36:25.590Z,31.3
2018-06-09T10:37:26.282Z,31.3
2018-06-09T10:38:26.991Z,31.9
2018-06-09T10:39:27.693Z,32.1
2018-06-09T10:40:28.380Z,32.1
2018-06-09T10:41:29.067Z,32.4
2018-06-09T10:42:29.756Z,32.4
2018-06-09T10:43:30.468Z,33.4
2018-06-09T10:44:31.216Z,33.8
2018-06-09T10:45:31.903Z,34.6
2018-06-09T10:46:32.595Z,35.2
2018-06-09T10:47:33.315Z,35.2
2018-06-09T10:48:34.041Z,35.4
2018-06-09T10:49:34.731Z,35.5
2018-06-09T10:50:35.419Z,35.2
2018-06-09T10:51:36.105Z,35.3
2018-06-09T10:52:36.837Z,35.6
2018-06-09T10:53:37.527Z,36.0
2018-06-09T10:54:38.216Z,36.5
2018-06-09T10:55:38.942Z,36.4
2018-06-09T10:56:39.631Z,36.4
2018-06-09T10:57:40.320Z,36.8
2018-06-09T10:58:41.018Z,37.5
2018-06-09T10:59:41.741Z,37.7
2018-06-09T11:00:42.505Z,37.5
2018-06-09T11:01:43.530Z,37.7
2018-06-09T11:02:44.155Z,38.1
2018-06-09T11:03:44.842Z,37.9
2018-06-09T11:04:45.548Z,37.9
2018-06-09T11:05:46.268Z,37.7
2018-06-09T11:06:47.031Z,37.2
2018-06-09T11:07:47.732Z,37.7
2018-06-09T11:08:48.453Z,37.8
2018-06-09T11:09:49.142Z,38.2
2018-06-09T11:10:49.828Z,38.8
2018-06-09T11:11:50.517Z,38.4
2018-06-09T11:12:51.204Z,38.8
2018-06-09T11:13:51.893Z,38.8
2018-06-09T11:14:52.614Z,38.9
2018-06-09T11:15:53.308Z,38.4
2018-06-09T11:16:53.994Z,37.6
2018-06-09T11:17:54.680Z,38.0
2018-06-09T11:18:55.409Z,37.6
2018-06-09T11:19:56.098Z,37.3
2018-06-09T11:20:56.817Z,37.1
2018-06-09T11:21:57.507Z,36.5
2018-06-09T11:22:58.237Z,35.8
2018-06-09T11:23:58.964Z,36.5
2018-06-09T11:24:59.648Z,36.4
2018-06-09T11:26:00.336Z,36.8
2018-06-09T11:27:01.023Z,37.5
2018-06-09T11:28:01.717Z,37.4
2018-06-09T11:29:02.597Z,37.7
2018-06-09T11:30:03.321Z,37.4
2018-06-09T11:31:04.007Z,37.4
2018-06-09T11:32:04.695Z,37.3
2018-06-09T11:33:05.382Z,37.1
2018-06-09T11:34:06.067Z,37.3
2018-06-09T11:35:06.753Z,36.6
2018-06-09T11:36:07.441Z,36.4
2018-06-09T11:37:08.127Z,35.9
2018-06-09T11:38:08.812Z,36.2
2018-06-09T11:39:09.497Z,36.6
2018-06-09T11:40:10.188Z,36.9
2018-06-09T11:41:10.913Z,37.9
2018-06-09T11:42:11.602Z,37.7
2018-06-09T11:43:12.293Z,38.0
2018-06-09T11:44:12.978Z,38.3
2018-06-09T11:45:13.666Z,38.8
2018-06-09T11:46:14.353Z,38.7
2018-06-09T11:47:15.042Z,38.7
2018-06-09T11:48:15.725Z,38.5
2018-06-09T11:49:16.412Z,38.8
2018-06-09T11:50:17.097Z,38.6
2018-06-09T11:51:17.785Z,39.3
2018-06-09T11:52:18.472Z,39.1
2018-06-09T11:53:19.158Z,39.0
2018-06-09T11:54:19.842Z,39.1
2018-06-09T11:55:20.556Z,39.6
2018-06-09T11:56:21.255Z,39.3
2018-06-09T11:57:21.940Z,39.1
2018-06-09T11:58:22.628Z,39.2
2018-06-09T11:59:23.351Z,39.8
2018-06-09T12:00:24.044Z,38.7
2018-06-09T12:01:24.726Z,38.6
2018-06-09T12:02:25.412Z,38.5
2018-06-09T12:03:26.097Z,38.8
2018-06-09T12:04:26.786Z,39.7
2018-06-09T12:05:27.468Z,39.3
2018-06-09T12:06:28.204Z,39.2
2018-06-09T12:07:28.889Z,39.3
2018-06-09T12:08:29.575Z,39.4
2018-06-09T12:09:30.260Z,39.2
2018-06-09T12:10:30.945Z,39.9
2018-06-09T12:11:31.628Z,40.1
2018-06-09T12:12:32.319Z,39.8
2018-06-09T12:13:33.010Z,40.2
2018-06-09T12:14:33.731Z,40.3
2018-06-09T12:15:34.416Z,40.0
2018-06-09T12:16:35.110Z,40.3
2018-06-09T12:17:35.789Z,39.7
2018-06-09T12:18:36.514Z,39.2
2018-06-09T12:19:37.197Z,38.5
2018-06-09T12:20:37.884Z,38.8
2018-06-09T12:21:38.619Z,38.7
2018-06-09T12:22:39.321Z,37.9
2018-06-09T12:23:40.031Z,38.1
2018-06-09T12:24:40.716Z,37.6
2018-06-09T12:25:41.400Z,37.4
2018-06-09T12:26:42.091Z,37.4
2018-06-09T12:27:42.774Z,37.7
2018-06-09T12:28:43.460Z,37.3
2018-06-09T12:29:44.146Z,37.9
2018-06-09T12:30:44.830Z,38.5
2018-06-09T12:31:45.517Z,38.5
2018-06-09T12:32:46.203Z,38.6
2018-06-09T12:33:46.891Z,38.2
2018-06-09T12:34:47.574Z,38.7
2018-06-09T12:35:48.300Z,38.5
2018-06-09T12:36:48.986Z,38.8
2018-06-09T12:37:49.689Z,38.4
2018-06-09T12:38:50.400Z,37.9
2018-06-09T12:39:51.080Z,37.6
2018-06-09T12:40:51.767Z,36.9
2018-06-09T12:41:52.451Z,36.4
2018-06-09T12:42:53.137Z,36.4
2018-06-09T12:43:53.829Z,36.4
2018-06-09T12:44:54.511Z,35.9
2018-06-09T12:45:55.199Z,35.8
2018-06-09T12:46:55.885Z,36.5
2018-06-09T12:47:56.570Z,36.1
2018-06-09T12:48:57.256Z,36.4
2018-06-09T12:49:57.941Z,36.4
2018-06-09T12:50:58.633Z,36.5
2018-06-09T12:51:59.312Z,36.5
2018-06-09T12:52:59.996Z,36.1
2018-06-09T12:54:00.681Z,36.5
2018-06-09T12:55:01.369Z,36.4
2018-06-09T12:56:02.056Z,37.2
2018-06-09T12:57:02.738Z,36.7
2018-06-09T12:58:03.430Z,36.6
2018-06-09T12:59:04.111Z,36.4
2018-06-09T13:00:04.841Z,37.4
2018-06-09T13:01:05.523Z,36.5
2018-06-09T13:02:06.209Z,36.5
2018-06-09T13:03:06.897Z,36.5
2018-06-09T13:04:07.581Z,35.9
2018-06-09T13:05:08.288Z,35.9
2018-06-09T13:06:08.954Z,35.9
2018-06-09T13:07:09.675Z,34.7
2018-06-09T13:08:10.398Z,34.1
2018-06-09T13:09:11.085Z,34.7
2018-06-09T13:10:11.769Z,34.5
2018-06-09T13:11:12.461Z,34.4
2018-06-09T13:12:13.184Z,33.1
2018-06-09T13:13:13.869Z,33.5
2018-06-09T13:14:14.552Z,33.6
2018-06-09T13:15:15.239Z,34.0
2018-06-09T13:16:15.925Z,34.0
2018-06-09T13:17:16.610Z,33.7
2018-06-09T13:18:17.295Z,33.6
2018-06-09T13:19:18.041Z,33.3
2018-06-09T13:20:18.706Z,33.5
2018-06-09T13:21:19.394Z,33.5
2018-06-09T13:22:20.128Z,33.2
2018-06-09T13:23:20.816Z,33.5
2018-06-09T13:24:21.500Z,33.6
2018-06-09T13:25:22.186Z,33.7
2018-06-09T13:26:23.073Z,33.8
2018-06-09T13:27:23.759Z,33.1